Time;durP1;ratioP1;P1;durP2;ratioP2;P2;SDS_P1;SDS_P2;PMS_P1;PMS_P2;Temp;Humidity;BMP_temperature;BMP_pressure;BME280_temperature;BME280_humidity;BME280_pressure;Samples;Min_cycle;Max_cycle;Signal;HPM_P1;HPM_P2
2021/11/15 00:02:16;;;;;;;141.15;61.92;;;;;;;0.61;79.11;101913.52;1793132;80;21324;-53
2021/11/15 00:05:22;;;;;;;140.25;59.05;;;;;;;0.63;79.16;101916.14;1793545;79;21189;-54
2021/11/15 00:08:29;;;;;;;129.07;58.63;;;;;;;0.64;79.33;101917.41;1794178;79;21181;-53
2021/11/15 00:11:36;;;;;;;181.35;77.42;;;;;;;0.64;79.29;101920.11;1794719;79;21175;-55
2021/11/15 00:14:42;;;;;;;198.70;77.65;;;;;;;0.62;79.19;101930.08;1792257;79;21181;-54
2021/11/15 00:17:51;;;;;;;182.60;68.17;;;;;;;0.57;79.16;101933.47;1794096;79;21832;-56
2021/11/15 00:21:00;;;;;;;122.40;50.95;;;;;;;0.56;79.14;101920.95;1794132;80;21177;-56
2021/11/15 00:24:07;;;;;;;91.50;42.53;;;;;;;0.55;79.01;101919.22;1794031;80;21323;-54
2021/11/15 00:27:13;;;;;;;83.25;40.00;;;;;;;0.55;78.92;101922.38;1794008;80;21319;-54
2021/11/15 00:30:21;;;;;;;76.42;39.60;;;;;;;0.52;78.76;101921.19;1794018;80;21205;-56
2021/11/15 00:33:27;;;;;;;106.67;47.67;;;;;;;0.47;78.40;101927.27;1794014;80;21335;-54
2021/11/15 00:36:32;;;;;;;119.60;50.17;;;;;;;0.44;78.50;101930.11;1794123;80;21340;-57
2021/11/15 00:39:39;;;;;;;139.95;55.50;;;;;;;0.40;78.52;101937.45;1794048;80;21197;-56
2021/11/15 00:42:46;;;;;;;147.70;55.95;;;;;;;0.37;78.55;101939.41;1794033;80;21201;-57
2021/11/15 00:45:54;;;;;;;93.62;43.20;;;;;;;0.32;78.64;101922.14;1794060;80;21177;-56
2021/11/15 00:49:00;;;;;;;69.58;37.00;;;;;;;0.31;78.64;101934.33;1794395;79;21829;-54
2021/11/15 00:52:06;;;;;;;66.28;34.05;;;;;;;0.29;78.63;101922.28;1794166;80;21363;-55
2021/11/15 00:55:12;;;;;;;66.67;34.90;;;;;;;0.28;78.56;101931.78;1794101;80;21706;-54
2021/11/15 00:58:17;;;;;;;60.80;34.70;;;;;;;0.26;78.60;101926.47;1794105;80;21339;-55
2021/11/15 01:01:23;;;;;;;65.00;34.67;;;;;;;0.26;78.58;101926.47;1794044;80;21375;-56
2021/11/15 01:04:29;;;;;;;62.83;34.50;;;;;;;0.27;78.55;101934.09;1794016;80;21371;-55
2021/11/15 01:07:36;;;;;;;120.33;47.85;;;;;;;0.26;78.54;101935.02;1794026;80;21328;-55
2021/11/15 01:10:41;;;;;;;150.75;56.85;;;;;;;0.24;78.53;101944.52;1794048;80;21320;-56
2021/11/15 01:13:48;;;;;;;161.12;61.37;;;;;;;0.25;78.62;101934.17;1794109;80;21962;-55
2021/11/15 01:16:54;;;;;;;114.85;47.55;;;;;;;0.24;78.52;101914.89;1794916;78;21338;-55
2021/11/15 01:20:00;;;;;;;134.87;53.58;;;;;;;0.21;78.44;101915.05;1794029;80;21377;-56
2021/11/15 01:23:06;;;;;;;131.80;51.15;;;;;;;0.21;78.43;101914.20;1794106;80;21350;-56
2021/11/15 01:26:15;;;;;;;141.47;55.12;;;;;;;0.20;78.49;101911.96;1794032;80;21312;-57
2021/11/15 01:29:20;;;;;;;118.05;49.58;;;;;;;0.16;78.30;101904.95;1794012;80;21364;-54
2021/11/15 01:32:25;;;;;;;85.10;39.85;;;;;;;0.14;78.22;101914.95;1794041;80;21383;-55
2021/11/15 01:35:31;;;;;;;70.70;34.45;;;;;;;0.12;78.27;101915.48;1794016;80;21296;-55
2021/11/15 01:38:36;;;;;;;108.25;47.90;;;;;;;0.11;78.28;101921.84;1794033;80;21343;-54
2021/11/15 01:41:42;;;;;;;164.13;60.95;;;;;;;0.06;78.15;101933.75;1794066;80;21327;-57
2021/11/15 01:44:48;;;;;;;139.43;55.55;;;;;;;-0.03;78.32;101929.66;1793963;80;21217;-55
2021/11/15 01:47:56;;;;;;;138.65;54.93;;;;;;;-0.03;78.65;101930.53;1793951;80;21378;-55
2021/11/15 01:51:02;;;;;;;107.65;46.23;;;;;;;-0.01;78.70;101925.08;1793991;80;21272;-55
2021/11/15 01:54:08;;;;;;;107.80;47.98;;;;;;;-0.01;78.72;101925.96;1793961;80;21201;-54
2021/11/15 01:57:15;;;;;;;168.95;63.33;;;;;;;0.00;78.73;101926.84;1794107;80;21363;-55
2021/11/15 02:00:25;;;;;;;143.93;57.20;;;;;;;0.01;78.73;101932.62;1794051;79;21264;-57
2021/11/15 02:03:32;;;;;;;159.05;61.68;;;;;;;0.00;78.66;101930.88;1793983;80;21194;-55
2021/11/15 02:06:38;;;;;;;153.30;58.20;;;;;;;-0.03;78.47;101931.00;1793983;80;21315;-55
2021/11/15 02:09:44;;;;;;;144.72;56.10;;;;;;;-0.05;78.29;101928.37;1793969;80;21200;-55
2021/11/15 02:12:51;;;;;;;83.85;38.98;;;;;;;-0.08;78.28;101934.40;1794128;80;21436;-55
2021/11/15 02:15:57;;;;;;;78.95;34.67;;;;;;;-0.14;78.30;101934.66;1794082;80;21272;-57
2021/11/15 02:19:04;;;;;;;83.95;36.95;;;;;;;-0.19;78.56;101932.67;1793637;79;21343;-56
2021/11/15 02:22:11;;;;;;;85.60;38.63;;;;;;;-0.20;78.77;101938.52;1794565;79;21524;-56
2021/11/15 02:25:17;;;;;;;102.62;41.40;;;;;;;-0.19;78.84;101939.41;1794727;79;22064;-57
2021/11/15 02:28:23;;;;;;;101.33;43.50;;;;;;;-0.20;78.79;101932.25;1794450;79;21379;-56
2021/11/15 02:31:31;;;;;;;78.95;35.83;;;;;;;-0.20;78.82;101933.14;1794186;79;21316;-56
2021/11/15 02:34:36;;;;;;;90.90;40.28;;;;;;;-0.19;78.94;101930.84;1794618;79;21319;-57
2021/11/15 02:37:42;;;;;;;124.92;50.73;;;;;;;-0.19;79.04;101932.67;1794127;79;21821;-55
2021/11/15 02:40:49;;;;;;;78.87;36.45;;;;;;;-0.19;79.13;101937.56;1793738;79;21620;-55
2021/11/15 02:43:56;;;;;;;66.35;34.53;;;;;;;-0.22;79.06;101937.70;1794648;79;21387;-55
2021/11/15 02:47:01;;;;;;;68.07;32.93;;;;;;;-0.28;79.27;101938.45;1793682;79;21189;-56
2021/11/15 02:50:08;;;;;;;67.17;33.58;;;;;;;-0.30;79.39;101943.02;1794211;79;21170;-55
2021/11/15 02:53:17;;;;;;;86.22;39.90;;;;;;;-0.34;79.54;101941.42;1794311;80;21197;-56
2021/11/15 02:56:24;;;;;;;97.47;43.48;;;;;;;-0.38;79.68;101946.55;1794043;79;21225;-55
2021/11/15 02:59:29;;;;;;;93.30;41.35;;;;;;;-0.36;79.98;101941.95;1793578;79;21205;-56
2021/11/15 03:02:34;;;;;;;79.40;36.03;;;;;;;-0.30;80.19;101951.09;1794184;79;21271;-55
2021/11/15 03:05:43;;;;;;;84.75;38.90;;;;;;;-0.23;80.22;101967.38;1794089;79;21343;-56
2021/11/15 03:08:48;;;;;;;81.02;39.20;;;;;;;-0.23;80.24;101964.69;1794525;79;21205;-55
2021/11/15 03:11:54;;;;;;;95.57;42.85;;;;;;;-0.21;80.34;101958.27;1793454;79;21686;-56
2021/11/15 03:15:00;;;;;;;93.70;39.98;;;;;;;-0.16;80.39;101959.44;1794303;79;21299;-56
2021/11/15 03:18:12;;;;;;;97.15;43.75;;;;;;;-0.12;80.42;101965.07;1793669;79;21439;-55
2021/11/15 03:21:22;;;;;;;76.77;35.25;;;;;;;-0.09;80.30;101968.97;1794109;80;21315;-56
2021/11/15 03:24:28;;;;;;;68.05;31.87;;;;;;;-0.06;80.30;101965.67;1794022;80;21343;-55
2021/11/15 03:27:33;;;;;;;69.42;30.60;;;;;;;-0.04;80.15;101973.67;1794084;80;21331;-55
2021/11/15 03:30:41;;;;;;;57.10;29.82;;;;;;;-0.04;80.01;101969.17;1777904;80;21312;-55
2021/11/15 03:33:47;;;;;;;65.15;31.73;;;;;;;-0.05;79.86;101974.13;1794405;79;21833;-54
2021/11/15 03:36:53;;;;;;;55.12;29.10;;;;;;;-0.05;79.79;101966.55;1777217;80;21299;-56
2021/11/15 03:40:00;;;;;;;66.53;33.18;;;;;;;-0.04;79.74;101969.63;1794029;80;21177;-55
2021/11/15 03:43:09;;;;;;;70.05;35.20;;;;;;;-0.05;79.56;101965.20;1794030;80;21710;-56
2021/11/15 03:46:15;;;;;;;68.40;32.08;;;;;;;-0.02;79.54;101967.75;1794090;80;21358;-55
2021/11/15 03:49:21;;;;;;;60.52;30.37;;;;;;;0.00;79.35;101956.45;1794053;80;21360;-54
2021/11/15 03:52:26;;;;;;;85.42;38.40;;;;;;;0.01;79.12;101968.95;1794001;80;21304;-56
2021/11/15 03:55:33;;;;;;;64.92;31.87;;;;;;;-0.01;78.83;101974.88;1794069;80;21216;-55
2021/11/15 03:58:39;;;;;;;83.20;36.95;;;;;;;-0.06;78.70;101975.09;1794067;80;21323;-55
2021/11/15 04:01:45;;;;;;;78.10;36.68;;;;;;;-0.09;78.59;101963.13;1794119;80;21528;-56
2021/11/15 04:04:56;;;;;;;65.17;32.30;;;;;;;-0.12;78.41;101970.45;1794022;80;21150;-55
2021/11/15 04:08:00;;;;;;;70.15;34.55;;;;;;;-0.17;78.24;101960.36;1794074;80;21335;-53
2021/11/15 04:11:07;;;;;;;69.55;35.80;;;;;;;-0.17;78.22;101964.41;1793989;80;21359;-56
2021/11/15 04:14:15;;;;;;;75.90;33.83;;;;;;;-0.16;78.25;101967.02;1793983;80;21221;-56
2021/11/15 04:17:20;;;;;;;63.65;31.25;;;;;;;-0.10;78.20;101965.89;1793981;80;21145;-56
2021/11/15 04:20:27;;;;;;;67.00;33.23;;;;;;;-0.08;78.02;101964.86;1794574;78;21427;-56
2021/11/15 04:23:34;;;;;;;70.20;33.23;;;;;;;-0.11;77.57;101973.08;1793523;79;21331;-55
2021/11/15 04:26:41;;;;;;;64.50;31.87;;;;;;;-0.18;77.17;101967.59;1793680;80;21825;-55
2021/11/15 04:29:48;;;;;;;66.42;31.73;;;;;;;-0.20;77.08;101964.55;1793831;80;21303;-55
2021/11/15 04:32:55;;;;;;;61.65;31.20;;;;;;;-0.19;77.18;101967.66;1793310;79;21240;-56
2021/11/15 04:36:05;;;;;;;71.65;34.10;;;;;;;-0.15;77.24;101979.55;1793543;79;21209;-56
2021/11/15 04:39:12;;;;;;;48.10;26.20;;;;;;;-0.10;77.16;101982.92;1793091;80;21200;-55
2021/11/15 04:42:17;;;;;;;63.13;31.73;;;;;;;-0.04;77.16;101982.63;1793337;80;21268;-57
2021/11/15 04:45:25;;;;;;;69.95;34.48;;;;;;;-0.03;77.10;101989.75;1793050;80;21778;-56
2021/11/15 04:48:32;;;;;;;69.20;33.67;;;;;;;-0.01;77.08;101986.98;1793778;80;21446;-56
2021/11/15 04:51:37;;;;;;;56.42;29.32;;;;;;;0.02;77.04;102008.88;1793610;80;21343;-56
2021/11/15 04:54:43;;;;;;;54.00;28.87;;;;;;;0.10;77.00;102014.75;1793656;79;21866;-56
2021/11/15 04:57:48;;;;;;;48.38;28.27;;;;;;;0.18;76.88;102017.51;1793790;80;21344;-60
2021/11/15 05:00:55;;;;;;;50.10;27.42;;;;;;;0.23;77.07;102016.83;1793626;79;21216;-57
2021/11/15 05:04:01;;;;;;;47.43;27.82;;;;;;;0.29;77.39;102023.27;1793938;79;21402;-57
2021/11/15 05:07:12;;;;;;;55.00;28.98;;;;;;;0.43;77.73;102032.93;1794044;79;21323;-55
2021/11/15 05:10:17;;;;;;;56.02;30.20;;;;;;;0.61;77.98;102025.34;1793523;80;21220;-57
2021/11/15 05:13:23;;;;;;;49.55;28.75;;;;;;;0.82;77.94;102039.61;1793221;80;21382;-56
2021/11/15 05:16:29;;;;;;;59.58;31.35;;;;;;;0.94;77.80;102034.96;1793768;79;21387;-58
2021/11/15 05:19:35;;;;;;;53.58;27.62;;;;;;;1.06;77.68;102026.30;1793967;79;21718;-56
2021/11/15 05:22:42;;;;;;;77.65;46.15;;;;;;;1.19;77.67;102032.84;1793210;79;21316;-56
2021/11/15 05:25:56;;;;;;;71.02;39.70;;;;;;;1.31;77.68;102038.48;1681282;83;21350;-55
2021/11/15 05:29:02;;;;;;;63.73;34.25;;;;;;;1.41;77.62;102034.36;1648787;87;21238;-56
2021/11/15 05:32:08;;;;;;;53.38;30.97;;;;;;;1.53;77.43;102032.87;1620819;87;21247;-57
2021/11/15 05:35:14;;;;;;;53.52;28.67;;;;;;;1.65;77.56;102036.77;1629999;86;21268;-56
2021/11/15 05:38:20;;;;;;;76.35;35.92;;;;;;;1.80;77.50;102041.36;1619612;87;21938;-56
2021/11/15 05:41:25;;;;;;;62.50;36.13;;;;;;;1.90;77.33;102039.47;1638733;85;21230;-57
2021/11/15 05:44:32;;;;;;;73.05;37.30;;;;;;;1.98;77.11;102052.56;1678844;83;21397;-56
2021/11/15 05:47:38;;;;;;;73.97;37.65;;;;;;;2.03;76.78;102054.05;1647263;85;21300;-57
2021/11/15 05:50:44;;;;;;;67.87;35.13;;;;;;;2.09;76.47;102058.27;1641495;87;21798;-56
2021/11/15 05:53:51;;;;;;;62.93;34.80;;;;;;;2.14;76.29;102062.45;1617546;88;21255;-57
2021/11/15 05:56:57;;;;;;;77.47;37.70;;;;;;;2.19;76.18;102067.14;1637976;86;21749;-57
2021/11/15 06:00:02;;;;;;;60.43;34.78;;;;;;;2.23;76.08;102073.27;1615772;88;21701;-57
2021/11/15 06:03:07;;;;;;;106.58;48.87;;;;;;;2.20;75.72;102083.77;1619255;88;21247;-56
2021/11/15 06:06:12;;;;;;;127.80;55.12;;;;;;;2.10;75.67;102089.25;1637004;85;21271;-55
2021/11/15 06:09:19;;;;;;;106.63;47.23;;;;;;;2.12;75.88;102102.67;1639609;87;21247;-57
2021/11/15 06:12:25;;;;;;;45.73;26.35;;;;;;;2.12;75.82;102098.62;1646951;86;21287;-57
2021/11/15 06:15:32;;;;;;;74.50;34.33;;;;;;;2.11;75.82;102099.59;1620316;88;21287;-57
2021/11/15 06:18:40;;;;;;;58.25;30.55;;;;;;;2.12;75.90;102091.40;1620338;88;21271;-57
2021/11/15 06:21:50;;;;;;;51.35;29.25;;;;;;;2.19;75.96;102091.95;1626372;87;21188;-57
2021/11/15 06:24:57;;;;;;;67.82;33.38;;;;;;;2.23;75.90;102090.82;1625344;85;21442;-58
2021/11/15 06:28:03;;;;;;;48.38;28.00;;;;;;;2.32;76.10;102094.37;1669529;84;21245;-57
2021/11/15 06:31:11;;;;;;;48.70;27.75;;;;;;;2.42;76.08;102097.87;1670105;85;21289;-58
2021/11/15 06:34:20;;;;;;;51.98;27.13;;;;;;;2.43;76.23;102097.38;1670136;84;21253;-59
2021/11/15 06:37:27;;;;;;;43.17;25.32;;;;;;;2.49;76.53;102108.73;1669826;84;21249;-57
2021/11/15 06:40:35;;;;;;;51.73;29.35;;;;;;;2.48;76.91;102107.00;1670257;86;21712;-57
2021/11/15 06:43:43;;;;;;;53.78;29.95;;;;;;;2.55;77.45;102110.25;1670540;84;21261;-57
2021/11/15 06:46:49;;;;;;;52.78;28.90;;;;;;;2.65;77.66;102112.83;1669899;86;21234;-56
2021/11/15 06:49:58;;;;;;;44.15;27.48;;;;;;;2.77;77.88;102121.64;1670512;86;21284;-57
2021/11/15 06:53:04;;;;;;;45.28;25.40;;;;;;;2.81;77.81;102116.45;1670523;84;21763;-58
2021/11/15 06:56:13;;;;;;;46.13;28.17;;;;;;;2.79;77.81;102119.73;1670579;86;21297;-58
2021/11/15 06:59:20;;;;;;;45.12;28.45;;;;;;;2.83;77.99;102125.36;1661918;85;21378;-58
2021/11/15 07:02:26;;;;;;;56.70;31.05;;;;;;;2.83;78.05;102128.94;1671282;84;21380;-58
2021/11/15 07:05:33;;;;;;;57.55;34.88;;;;;;;2.92;78.24;102131.59;1671068;86;21225;-58
2021/11/15 07:08:42;;;;;;;55.28;31.62;;;;;;;3.07;78.45;102130.77;1671473;84;21293;-57
2021/11/15 07:11:50;;;;;;;57.98;32.42;;;;;;;3.22;78.30;102129.89;1670795;86;21742;-58
2021/11/15 07:14:55;;;;;;;53.30;29.65;;;;;;;3.35;78.10;102130.06;1671105;86;21283;-58
2021/11/15 07:18:05;;;;;;;57.62;32.55;;;;;;;3.41;77.71;102133.80;1671458;84;21270;-59
2021/11/15 07:21:15;;;;;;;56.35;31.80;;;;;;;3.32;77.10;102136.54;1670973;85;21265;-57
2021/11/15 07:24:21;;;;;;;60.30;33.35;;;;;;;3.25;77.22;102141.89;1670591;84;21315;-58
2021/11/15 07:27:27;;;;;;;56.15;33.23;;;;;;;3.27;77.41;102135.92;1687651;82;21211;-57
2021/11/15 07:30:34;;;;;;;60.52;31.82;;;;;;;3.30;77.41;102137.09;1704062;83;21365;-57
2021/11/15 07:33:41;;;;;;;57.50;32.45;;;;;;;3.23;77.42;102151.95;1699166;84;21689;-57
2021/11/15 07:36:48;;;;;;;54.63;33.02;;;;;;;3.19;77.83;102154.42;1698594;84;21373;-58
2021/11/15 07:39:53;;;;;;;66.15;32.58;;;;;;;3.23;78.17;102156.48;1698314;84;21364;-58
2021/11/15 07:43:00;;;;;;;51.73;30.72;;;;;;;3.21;78.42;102158.39;1698644;84;21360;-57
2021/11/15 07:46:06;;;;;;;54.15;30.37;;;;;;;3.31;78.88;102155.57;1698907;84;21368;-59
2021/11/15 07:49:19;;;;;;;52.93;30.48;;;;;;;3.43;79.13;102152.16;1698724;84;21435;-58
2021/11/15 07:52:29;;;;;;;66.80;36.98;;;;;;;3.55;79.33;102150.97;1699243;84;21901;-57
2021/11/15 07:55:40;;;;;;;66.07;36.10;;;;;;;3.70;79.50;102156.88;1700771;82;21212;-57
2021/11/15 07:58:48;;;;;;;62.08;34.45;;;;;;;3.86;79.57;102160.44;1677024;82;21900;-58
2021/11/15 08:01:53;;;;;;;60.35;33.33;;;;;;;4.00;79.56;102164.56;1686855;83;21186;-57
2021/11/15 08:05:01;;;;;;;48.42;29.12;;;;;;;4.13;79.56;102162.88;1693260;84;21691;-57
2021/11/15 08:08:10;;;;;;;62.90;30.65;;;;;;;4.23;79.38;102162.69;1681841;84;21285;-58
2021/11/15 08:11:16;;;;;;;46.02;26.35;;;;;;;4.34;79.18;102168.84;1697446;84;21257;-58
2021/11/15 08:14:22;;;;;;;42.48;25.37;;;;;;;4.42;79.01;102161.97;1697388;83;21388;-58
2021/11/15 08:17:31;;;;;;;50.85;27.95;;;;;;;4.57;78.78;102162.88;1696475;83;21313;-58
2021/11/15 08:20:37;;;;;;;55.20;29.05;;;;;;;4.68;78.42;102169.02;1696025;83;21740;-57
2021/11/15 08:23:47;;;;;;;55.20;27.87;;;;;;;4.79;78.01;102174.65;1688389;84;21235;-59
2021/11/15 08:27:02;;;;;;;56.77;30.02;;;;;;;4.89;77.41;102178.52;1702536;83;21249;-59
2021/11/15 08:30:12;;;;;;;45.15;26.07;;;;;;;4.98;76.90;102182.03;1712090;82;21384;-58
2021/11/15 08:33:17;;;;;;;48.55;27.73;;;;;;;5.04;76.18;102188.42;1694208;82;21802;-57
2021/11/15 08:36:23;;;;;;;41.53;24.10;;;;;;;5.08;75.80;102191.31;1687713;82;21760;-57
2021/11/15 08:39:33;;;;;;;38.88;22.05;;;;;;;5.14;75.67;102189.59;1694207;82;21456;-57
2021/11/15 08:42:39;;;;;;;42.55;23.20;;;;;;;5.23;75.32;102194.44;1663942;86;21986;-57
2021/11/15 08:45:45;;;;;;;38.45;23.77;;;;;;;5.30;74.83;102197.13;1651624;85;21286;-57
2021/11/15 08:48:53;;;;;;;51.70;25.60;;;;;;;5.37;74.42;102187.16;1687272;83;21237;-57
2021/11/15 08:52:09;;;;;;;40.80;24.30;;;;;;;5.41;73.79;102181.02;1669651;85;21217;-58
2021/11/15 08:55:14;;;;;;;40.08;24.50;;;;;;;5.49;73.69;102174.12;1683947;82;21250;-58
2021/11/15 08:58:20;;;;;;;34.98;20.43;;;;;;;5.52;72.85;102183.91;1704381;84;21244;-57
2021/11/15 09:01:28;;;;;;;37.88;21.93;;;;;;;5.53;72.17;102178.88;1704164;84;21372;-58
2021/11/15 09:04:36;;;;;;;36.83;21.37;;;;;;;5.50;71.68;102188.08;1705000;84;21281;-57
2021/11/15 09:07:44;;;;;;;40.58;24.18;;;;;;;5.51;71.25;102195.75;1705391;83;21427;-59
2021/11/15 09:10:50;;;;;;;43.95;20.43;;;;;;;5.49;71.07;102190.42;1703588;84;21877;-60
2021/11/15 09:14:00;;;;;;;32.35;19.07;;;;;;;5.54;71.09;102187.41;1697243;83;21770;-58
2021/11/15 09:17:05;;;;;;;35.05;20.90;;;;;;;5.60;70.80;102185.16;1704878;83;22264;-57
2021/11/15 09:20:13;;;;;;;36.13;18.98;;;;;;;5.69;70.60;102184.55;1701302;82;21374;-57
2021/11/15 09:23:21;;;;;;;27.05;18.10;;;;;;;5.81;70.53;102193.75;1703898;84;21791;-59
2021/11/15 09:26:29;;;;;;;33.70;18.90;;;;;;;5.91;69.86;102188.98;1695926;82;21217;-57
2021/11/15 09:29:37;;;;;;;31.05;19.73;;;;;;;5.96;68.86;102187.34;1669310;84;21291;-57
2021/11/15 09:32:43;;;;;;;30.52;18.50;;;;;;;5.97;68.88;102188.59;1683942;84;21503;-58
2021/11/15 09:35:49;;;;;;;31.68;19.02;;;;;;;6.07;68.77;102192.94;1690854;83;21229;-57
2021/11/15 09:38:57;;;;;;;33.83;18.27;;;;;;;6.13;68.35;102186.20;1681118;84;21743;-57
2021/11/15 09:42:03;;;;;;;28.23;17.75;;;;;;;6.22;68.24;102189.16;1683229;84;21195;-56
2021/11/15 09:45:18;;;;;;;26.40;17.37;;;;;;;6.31;67.91;102188.53;1704625;84;21211;-57
2021/11/15 09:48:25;;;;;;;24.72;16.00;;;;;;;6.40;67.43;102196.08;1690412;84;21218;-58
2021/11/15 09:51:31;;;;;;;31.20;16.60;;;;;;;6.47;67.13;102190.58;1678424;85;21365;-57
2021/11/15 09:54:37;;;;;;;34.43;16.75;;;;;;;6.53;66.29;102192.91;1679442;84;21616;-56
2021/11/15 09:57:48;;;;;;;22.27;14.50;;;;;;;6.57;65.91;102196.27;1677547;84;21226;-57
2021/11/15 10:00:55;;;;;;;31.82;15.23;;;;;;;6.66;65.44;102197.86;1678129;85;21396;-57
2021/11/15 10:04:02;;;;;;;23.52;14.33;;;;;;;6.69;64.71;102201.72;1678510;84;21226;-56
2021/11/15 10:07:07;;;;;;;29.72;16.80;;;;;;;6.75;64.61;102205.89;1681933;84;21695;-58
2021/11/15 10:10:38;;;;;;;25.55;15.35;;;;;;;6.84;64.19;102203.39;1679337;85;21440;-57
2021/11/15 10:13:42;;;;;;;23.75;15.45;;;;;;;6.79;63.86;102206.92;1680355;84;21368;-58
2021/11/15 10:16:48;;;;;;;23.98;14.73;;;;;;;6.72;63.89;102202.91;1679450;85;21344;-59
2021/11/15 10:19:53;;;;;;;28.77;15.65;;;;;;;6.68;63.99;102205.44;1683182;84;21357;-58
2021/11/15 10:23:00;;;;;;;23.25;14.60;;;;;;;6.65;64.16;102217.90;1680954;84;21411;-57
2021/11/15 10:26:07;;;;;;;25.37;15.03;;;;;;;6.66;64.20;102223.71;1681582;84;21589;-57
2021/11/15 10:29:33;;;;;;;20.82;13.58;;;;;;;6.70;64.21;102229.34;1685904;84;21708;-57
2021/11/15 10:32:43;;;;;;;22.40;15.60;;;;;;;6.72;64.15;102228.75;1698713;84;21424;-56
2021/11/15 10:35:52;;;;;;;28.98;18.25;;;;;;;6.76;64.15;102228.02;1664729;86;21290;-58
2021/11/15 10:38:59;;;;;;;34.95;19.32;;;;;;;6.71;64.12;102229.71;1650976;86;21893;-57
2021/11/15 10:42:12;;;;;;;31.60;18.80;;;;;;;6.57;64.40;102232.52;1664899;85;21249;-58
2021/11/15 10:45:27;;;;;;;34.45;17.62;;;;;;;6.50;64.86;102235.26;1664543;85;21246;-57
2021/11/15 10:48:32;;;;;;;28.67;17.95;;;;;;;6.51;64.96;102239.75;1667167;85;21318;-58
2021/11/15 10:52:07;;;;;;;34.00;21.60;;;;;;;6.44;65.01;102242.48;1682551;83;21761;-58
2021/11/15 10:55:14;;;;;;;;;;;;;;;6.35;65.51;102231.36;1676640;84;21256;-56
2021/11/15 10:58:30;;;;;;;33.83;21.40;;;;;;;6.39;65.69;102246.51;1694046;83;20241;-56
2021/11/15 11:01:43;;;;;;;31.00;21.02;;;;;;;6.48;65.81;102244.52;1694964;84;21337;-58
2021/11/15 11:05:11;;;;;;;42.25;25.25;;;;;;;6.54;65.29;102249.53;1698711;82;21233;-58
2021/11/15 11:08:33;;;;;;;33.00;21.70;;;;;;;6.60;65.36;102252.71;1697764;83;21218;-57
2021/11/15 11:11:42;;;;;;;44.38;26.10;;;;;;;6.71;65.29;102258.77;1698058;84;21408;-59
2021/11/15 11:14:51;;;;;;;40.30;24.27;;;;;;;6.83;65.10;102255.22;1697007;84;21765;-58
2021/11/15 11:18:52;;;;;;;34.65;22.05;;;;;;;6.84;64.54;102265.12;1694615;84;21275;-57
2021/11/15 11:24:58;;;;;;;27.35;17.57;;;;;;;6.58;64.16;102276.42;1696455;83;21603;-57
2021/11/15 11:27:55;;;;;;;27.07;16.17;;;;;;;6.39;64.46;102294.96;1662015;86;21259;-58
2021/11/15 11:31:07;;;;;;;28.87;17.15;;;;;;;6.40;64.71;102294.48;1693173;83;21203;-59
2021/11/15 11:34:16;;;;;;;23.45;16.75;;;;;;;6.47;64.69;102293.96;1674914;84;21259;-55
2021/11/15 11:37:26;;;;;;;28.62;17.60;;;;;;;6.39;64.51;102309.92;1692540;83;21206;-57
2021/11/15 11:40:32;;;;;;;37.98;19.80;;;;;;;6.28;64.72;102311.13;1692260;83;21214;-54
2021/11/15 11:43:38;;;;;;;28.07;18.17;;;;;;;6.22;65.02;102311.53;1721063;82;21228;-55
2021/11/15 11:46:47;;;;;;;28.73;17.27;;;;;;;6.06;65.12;102328.46;1702004;83;21806;-56
2021/11/15 11:49:58;;;;;;;31.70;20.15;;;;;;;5.71;65.54;102334.78;1687202;85;21196;-57
2021/11/15 11:53:12;;;;;;;34.70;21.68;;;;;;;5.49;66.60;102333.50;1678883;84;21394;-57
2021/11/15 11:56:26;;;;;;;33.88;20.43;;;;;;;5.35;67.23;102341.63;1678672;85;21362;-57
2021/11/15 11:59:31;;;;;;;33.05;19.77;;;;;;;5.30;67.84;102350.07;1662627;85;21227;-56
2021/11/15 12:02:38;;;;;;;36.75;17.75;;;;;;;5.24;68.25;102353.17;1642832;86;21236;-55
2021/11/15 12:05:49;;;;;;;25.97;17.67;;;;;;;5.11;68.41;102360.78;1687691;83;21843;-55
2021/11/15 12:09:05;;;;;;;28.77;17.50;;;;;;;4.87;69.12;102354.98;1688738;85;21471;-56
2021/11/15 12:12:14;;;;;;;30.25;17.67;;;;;;;4.78;69.70;102361.44;1686516;85;21251;-55
2021/11/15 12:15:47;;;;;;;29.63;17.80;;;;;;;4.72;69.90;102375.37;1683331;85;21250;-55
2021/11/15 12:19:06;;;;;;;24.17;15.40;;;;;;;4.63;70.20;102385.41;1686469;82;21308;-56
2021/11/15 12:22:29;;;;;;;22.42;15.40;;;;;;;4.52;70.47;102390.97;1660784;82;21171;-56
2021/11/15 12:25:37;;;;;;;24.82;15.15;;;;;;;4.30;70.80;102393.16;1684738;83;22088;-56
2021/11/15 12:28:49;;;;;;;24.65;13.05;;;;;;;4.21;71.17;102397.75;1660312;82;21234;-55
2021/11/15 12:32:11;;;;;;;25.12;14.83;;;;;;;4.08;71.52;102402.11;1671172;84;21230;-57
2021/11/15 12:35:16;;;;;;;25.27;16.00;;;;;;;3.92;72.12;102405.27;1693716;83;21230;-57
2021/11/15 12:38:47;;;;;;;27.48;14.93;;;;;;;3.84;72.71;102406.16;1691797;84;21270;-58
2021/11/15 12:41:54;;;;;;;30.00;17.87;;;;;;;3.83;72.80;102415.73;1658813;85;21231;-54
2021/11/15 12:45:25;;;;;;;32.45;18.30;;;;;;;3.73;72.93;102408.58;1696096;83;21728;-56
2021/11/15 12:48:52;;;;;;;30.60;17.32;;;;;;;3.73;73.11;102406.34;1654300;86;21878;-56
2021/11/15 12:52:16;;;;;;;34.85;18.67;;;;;;;3.75;73.16;102409.84;1668496;85;21742;-55
2021/11/15 12:55:23;;;;;;;29.20;17.00;;;;;;;3.78;73.37;102410.56;1693527;84;21242;-57
2021/11/15 12:58:29;;;;;;;26.60;16.37;;;;;;;3.92;73.15;102412.03;1695230;83;21877;-56
2021/11/15 13:01:36;;;;;;;28.15;15.18;;;;;;;3.96;72.67;102426.30;1693076;83;21217;-56
2021/11/15 13:04:43;;;;;;;31.97;17.75;;;;;;;3.98;72.32;102427.95;1679606;85;21243;-55
2021/11/15 13:07:49;;;;;;;28.47;16.07;;;;;;;4.01;72.18;102432.34;1686085;83;21232;-55
2021/11/15 13:10:55;;;;;;;28.42;16.07;;;;;;;4.04;72.06;102429.47;1694967;84;21222;-56
2021/11/15 13:14:02;;;;;;;25.92;15.58;;;;;;;4.04;71.63;102428.96;1668915;84;21349;-55
2021/11/15 13:17:10;;;;;;;22.17;14.70;;;;;;;3.99;71.48;102436.96;1668337;84;21237;-57
2021/11/15 13:20:18;;;;;;;32.38;19.05;;;;;;;4.02;71.35;102427.31;1691068;84;21216;-56
2021/11/15 13:23:27;;;;;;;41.37;20.40;;;;;;;4.02;70.99;102450.34;1654820;85;21623;-58
2021/11/15 13:26:35;;;;;;;34.75;17.98;;;;;;;4.08;70.63;102454.95;1623153;87;21285;-56
2021/11/15 13:29:44;;;;;;;51.42;26.65;;;;;;;4.07;69.96;102453.22;1635954;87;21233;-54
2021/11/15 13:32:54;;;;;;;29.55;14.68;;;;;;;4.02;69.48;102472.02;1656270;85;21242;-56
2021/11/15 13:36:19;;;;;;;25.50;12.43;;;;;;;4.00;69.26;102466.69;1688184;84;21224;-56
2021/11/15 13:39:24;;;;;;;19.95;11.55;;;;;;;4.03;69.08;102466.52;1701318;82;21232;-55
2021/11/15 13:42:32;;;;;;;26.85;14.98;;;;;;;4.06;68.80;102469.05;1695791;83;21238;-55
2021/11/15 13:45:41;;;;;;;30.30;14.63;;;;;;;4.05;68.60;102468.67;1696911;84;21199;-56
2021/11/15 13:48:51;;;;;;;26.23;14.23;;;;;;;4.10;68.50;102475.19;1697398;83;21245;-55
2021/11/15 13:51:59;;;;;;;23.77;12.98;;;;;;;4.15;68.32;102476.70;1696176;84;21214;-56
2021/11/15 13:55:05;;;;;;;22.13;13.28;;;;;;;4.15;67.81;102482.13;1695432;84;21568;-55
2021/11/15 13:58:10;;;;;;;31.20;15.05;;;;;;;4.09;67.70;102489.72;1696809;83;21253;-57
2021/11/15 14:01:20;;;;;;;28.60;14.23;;;;;;;4.03;67.74;102485.48;1695232;84;21195;-56
2021/11/15 14:04:25;;;;;;;42.17;18.35;;;;;;;3.97;67.53;102494.42;1696210;84;21262;-57
2021/11/15 14:07:31;;;;;;;53.90;20.82;;;;;;;4.02;67.67;102495.94;1675647;84;21297;-55
2021/11/15 14:10:40;;;;;;;49.55;21.20;;;;;;;4.07;67.46;102501.99;1696569;84;21257;-55
2021/11/15 14:13:47;;;;;;;58.38;24.10;;;;;;;4.06;67.00;102492.09;1694680;83;21595;-56
2021/11/15 14:16:56;;;;;;;60.15;27.58;;;;;;;4.00;66.78;102500.56;1695356;84;21190;-55
2021/11/15 14:20:01;;;;;;;42.95;21.10;;;;;;;4.01;66.75;102511.78;1695679;83;21799;-55
2021/11/15 14:23:06;;;;;;;45.10;21.45;;;;;;;4.04;66.65;102515.68;1695317;83;21263;-55
2021/11/15 14:26:14;;;;;;;56.83;26.12;;;;;;;4.07;66.30;102520.97;1696559;84;21175;-56